sensor_id;sensor_type;location;lat;lon;timestamp;P1;durP1;ratioP1;P2;durP2;ratioP2
33573;SDS011;20085;50.832;4.392;2022-11-13T00:00:24;27.98;;;18.10;;
33573;SDS011;20085;50.832;4.392;2022-11-13T00:02:50;27.95;;;18.23;;
33573;SDS011;20085;50.832;4.392;2022-11-13T00:05:15;31.10;;;18.77;;
33573;SDS011;20085;50.832;4.392;2022-11-13T00:07:41;28.83;;;18.33;;
33573;SDS011;20085;50.832;4.392;2022-11-13T00:10:06;30.65;;;18.73;;
33573;SDS011;20085;50.832;4.392;2022-11-13T00:12:32;27.13;;;17.83;;
33573;SDS011;20085;50.832;4.392;2022-11-13T00:14:58;29.40;;;18.08;;
33573;SDS011;20085;50.832;4.392;2022-11-13T00:17:23;27.25;;;18.70;;
33573;SDS011;20085;50.832;4.392;2022-11-13T00:19:49;30.10;;;17.98;;
33573;SDS011;20085;50.832;4.392;2022-11-13T00:22:15;28.08;;;18.08;;
33573;SDS011;20085;50.832;4.392;2022-11-13T00:24:40;32.28;;;17.90;;
33573;SDS011;20085;50.832;4.392;2022-11-13T00:27:06;28.35;;;19.08;;
33573;SDS011;20085;50.832;4.392;2022-11-13T00:29:31;29.40;;;18.73;;
33573;SDS011;20085;50.832;4.392;2022-11-13T00:31:57;31.20;;;19.55;;
33573;SDS011;20085;50.832;4.392;2022-11-13T00:34:22;27.92;;;19.48;;
33573;SDS011;20085;50.832;4.392;2022-11-13T00:36:48;33.22;;;21.65;;
33573;SDS011;20085;50.832;4.392;2022-11-13T00:39:13;32.67;;;21.00;;
33573;SDS011;20085;50.832;4.392;2022-11-13T00:41:39;32.92;;;20.98;;
33573;SDS011;20085;50.832;4.392;2022-11-13T00:44:05;29.48;;;19.15;;
33573;SDS011;20085;50.832;4.392;2022-11-13T00:46:31;29.13;;;18.90;;
33573;SDS011;20085;50.832;4.392;2022-11-13T00:48:56;29.35;;;18.40;;
33573;SDS011;20085;50.832;4.392;2022-11-13T00:51:22;29.50;;;17.63;;
33573;SDS011;20085;50.832;4.392;2022-11-13T00:53:48;22.88;;;16.13;;
33573;SDS011;20085;50.832;4.392;2022-11-13T00:56:13;25.42;;;17.42;;
33573;SDS011;20085;50.832;4.392;2022-11-13T00:58:39;23.55;;;16.17;;
33573;SDS011;20085;50.832;4.392;2022-11-13T01:01:06;26.60;;;15.65;;
33573;SDS011;20085;50.832;4.392;2022-11-13T01:03:34;24.55;;;15.57;;
33573;SDS011;20085;50.832;4.392;2022-11-13T01:06:00;19.75;;;13.63;;
33573;SDS011;20085;50.832;4.392;2022-11-13T01:08:41;18.52;;;13.60;;
33573;SDS011;20085;50.832;4.392;2022-11-13T01:11:08;21.27;;;13.45;;
33573;SDS011;20085;50.832;4.392;2022-11-13T01:13:35;18.95;;;12.60;;
33573;SDS011;20085;50.832;4.392;2022-11-13T01:16:03;18.02;;;11.77;;
33573;SDS011;20085;50.832;4.392;2022-11-13T01:18:30;19.67;;;12.07;;
33573;SDS011;20085;50.832;4.392;2022-11-13T01:21:06;19.27;;;12.02;;
33573;SDS011;20085;50.832;4.392;2022-11-13T01:23:37;21.70;;;12.18;;
33573;SDS011;20085;50.832;4.392;2022-11-13T01:28:40;18.17;;;11.18;;
33573;SDS011;20085;50.832;4.392;2022-11-13T01:31:07;21.02;;;11.68;;
33573;SDS011;20085;50.832;4.392;2022-11-13T01:33:35;17.83;;;10.95;;
33573;SDS011;20085;50.832;4.392;2022-11-13T01:36:09;19.35;;;11.55;;
33573;SDS011;20085;50.832;4.392;2022-11-13T01:38:37;17.58;;;11.13;;
33573;SDS011;20085;50.832;4.392;2022-11-13T01:41:04;17.73;;;11.88;;
33573;SDS011;20085;50.832;4.392;2022-11-13T01:43:31;16.70;;;11.00;;
33573;SDS011;20085;50.832;4.392;2022-11-13T01:48:25;19.30;;;12.52;;
33573;SDS011;20085;50.832;4.392;2022-11-13T01:50:56;17.33;;;11.68;;
33573;SDS011;20085;50.832;4.392;2022-11-13T01:53:22;16.88;;;11.02;;
33573;SDS011;20085;50.832;4.392;2022-11-13T01:55:48;16.95;;;11.50;;
33573;SDS011;20085;50.832;4.392;2022-11-13T01:58:14;17.67;;;11.20;;
33573;SDS011;20085;50.832;4.392;2022-11-13T02:00:40;17.30;;;11.35;;
33573;SDS011;20085;50.832;4.392;2022-11-13T02:03:06;19.13;;;11.75;;
33573;SDS011;20085;50.832;4.392;2022-11-13T02:05:31;21.67;;;11.45;;
33573;SDS011;20085;50.832;4.392;2022-11-13T02:07:57;19.02;;;12.05;;
33573;SDS011;20085;50.832;4.392;2022-11-13T02:10:23;14.90;;;10.20;;
33573;SDS011;20085;50.832;4.392;2022-11-13T02:12:50;14.80;;;10.07;;
33573;SDS011;20085;50.832;4.392;2022-11-13T02:15:16;15.48;;;10.20;;
33573;SDS011;20085;50.832;4.392;2022-11-13T02:20:11;16.52;;;9.57;;
33573;SDS011;20085;50.832;4.392;2022-11-13T02:25:49;13.35;;;8.57;;
33573;SDS011;20085;50.832;4.392;2022-11-13T02:28:17;13.85;;;8.68;;
33573;SDS011;20085;50.832;4.392;2022-11-13T02:30:44;14.82;;;9.25;;
33573;SDS011;20085;50.832;4.392;2022-11-13T02:33:29;12.70;;;8.23;;
33573;SDS011;20085;50.832;4.392;2022-11-13T02:35:56;13.50;;;8.43;;
33573;SDS011;20085;50.832;4.392;2022-11-13T02:38:22;16.85;;;8.20;;
33573;SDS011;20085;50.832;4.392;2022-11-13T02:40:47;13.80;;;8.73;;
33573;SDS011;20085;50.832;4.392;2022-11-13T02:43:13;12.73;;;8.10;;
33573;SDS011;20085;50.832;4.392;2022-11-13T02:45:38;13.45;;;8.70;;
33573;SDS011;20085;50.832;4.392;2022-11-13T02:48:04;13.48;;;8.52;;
33573;SDS011;20085;50.832;4.392;2022-11-13T02:50:31;15.55;;;7.63;;
33573;SDS011;20085;50.832;4.392;2022-11-13T02:52:58;13.38;;;8.25;;
33573;SDS011;20085;50.832;4.392;2022-11-13T02:55:23;12.15;;;7.82;;
33573;SDS011;20085;50.832;4.392;2022-11-13T02:57:49;11.60;;;7.82;;
33573;SDS011;20085;50.832;4.392;2022-11-13T03:00:15;14.48;;;8.63;;
33573;SDS011;20085;50.832;4.392;2022-11-13T03:02:41;14.30;;;8.00;;
33573;SDS011;20085;50.832;4.392;2022-11-13T03:05:06;15.23;;;7.75;;
33573;SDS011;20085;50.832;4.392;2022-11-13T03:07:33;15.57;;;8.32;;
33573;SDS011;20085;50.832;4.392;2022-11-13T03:09:58;12.88;;;8.02;;
33573;SDS011;20085;50.832;4.392;2022-11-13T03:12:24;12.00;;;8.18;;
33573;SDS011;20085;50.832;4.392;2022-11-13T03:14:49;11.68;;;7.53;;
33573;SDS011;20085;50.832;4.392;2022-11-13T03:17:15;14.07;;;7.88;;
33573;SDS011;20085;50.832;4.392;2022-11-13T03:19:40;12.57;;;7.65;;
33573;SDS011;20085;50.832;4.392;2022-11-13T03:22:06;13.40;;;8.23;;
33573;SDS011;20085;50.832;4.392;2022-11-13T03:24:32;12.90;;;7.97;;
33573;SDS011;20085;50.832;4.392;2022-11-13T03:26:57;15.77;;;8.18;;
33573;SDS011;20085;50.832;4.392;2022-11-13T03:29:23;12.93;;;8.10;;
33573;SDS011;20085;50.832;4.392;2022-11-13T03:31:48;14.82;;;8.32;;
33573;SDS011;20085;50.832;4.392;2022-11-13T03:34:14;15.15;;;8.57;;
33573;SDS011;20085;50.832;4.392;2022-11-13T03:36:39;11.80;;;8.07;;
33573;SDS011;20085;50.832;4.392;2022-11-13T03:39:05;13.23;;;8.63;;
33573;SDS011;20085;50.832;4.392;2022-11-13T03:41:30;15.55;;;8.48;;
33573;SDS011;20085;50.832;4.392;2022-11-13T03:43:56;13.55;;;8.52;;
33573;SDS011;20085;50.832;4.392;2022-11-13T03:46:22;12.93;;;8.32;;
33573;SDS011;20085;50.832;4.392;2022-11-13T03:48:47;12.88;;;8.80;;
33573;SDS011;20085;50.832;4.392;2022-11-13T03:51:13;13.48;;;8.85;;
33573;SDS011;20085;50.832;4.392;2022-11-13T03:53:38;14.38;;;8.88;;
33573;SDS011;20085;50.832;4.392;2022-11-13T03:56:04;14.95;;;9.98;;
33573;SDS011;20085;50.832;4.392;2022-11-13T03:58:30;16.23;;;10.05;;
33573;SDS011;20085;50.832;4.392;2022-11-13T04:00:56;19.60;;;11.30;;
33573;SDS011;20085;50.832;4.392;2022-11-13T04:03:21;20.05;;;9.95;;
33573;SDS011;20085;50.832;4.392;2022-11-13T04:05:48;19.52;;;10.43;;
33573;SDS011;20085;50.832;4.392;2022-11-13T04:08:14;16.35;;;10.32;;
33573;SDS011;20085;50.832;4.392;2022-11-13T04:10:41;20.67;;;10.90;;
33573;SDS011;20085;50.832;4.392;2022-11-13T04:13:07;17.40;;;10.20;;
33573;SDS011;20085;50.832;4.392;2022-11-13T04:15:33;17.52;;;11.23;;
33573;SDS011;20085;50.832;4.392;2022-11-13T04:17:58;17.25;;;11.68;;
33573;SDS011;20085;50.832;4.392;2022-11-13T04:20:24;18.67;;;11.35;;
33573;SDS011;20085;50.832;4.392;2022-11-13T04:22:51;18.13;;;11.43;;
33573;SDS011;20085;50.832;4.392;2022-11-13T04:25:17;18.00;;;10.65;;
33573;SDS011;20085;50.832;4.392;2022-11-13T04:27:43;19.20;;;11.80;;
33573;SDS011;20085;50.832;4.392;2022-11-13T04:30:09;19.15;;;10.95;;
33573;SDS011;20085;50.832;4.392;2022-11-13T04:32:35;21.45;;;12.40;;
33573;SDS011;20085;50.832;4.392;2022-11-13T04:35:00;18.48;;;12.27;;
33573;SDS011;20085;50.832;4.392;2022-11-13T04:37:26;21.33;;;12.93;;
33573;SDS011;20085;50.832;4.392;2022-11-13T04:39:52;18.85;;;12.25;;
33573;SDS011;20085;50.832;4.392;2022-11-13T04:42:17;23.48;;;12.48;;
33573;SDS011;20085;50.832;4.392;2022-11-13T04:45:01;22.25;;;13.13;;
33573;SDS011;20085;50.832;4.392;2022-11-13T04:47:27;24.70;;;13.93;;
33573;SDS011;20085;50.832;4.392;2022-11-13T04:49:53;21.05;;;13.73;;
33573;SDS011;20085;50.832;4.392;2022-11-13T04:52:18;23.67;;;14.45;;
33573;SDS011;20085;50.832;4.392;2022-11-13T04:54:44;23.25;;;14.65;;
33573;SDS011;20085;50.832;4.392;2022-11-13T04:57:09;22.10;;;14.27;;
33573;SDS011;20085;50.832;4.392;2022-11-13T04:59:35;21.77;;;14.23;;
33573;SDS011;20085;50.832;4.392;2022-11-13T05:02:01;20.27;;;14.07;;
33573;SDS011;20085;50.832;4.392;2022-11-13T05:04:26;25.15;;;14.70;;
33573;SDS011;20085;50.832;4.392;2022-11-13T05:06:52;24.85;;;15.68;;
33573;SDS011;20085;50.832;4.392;2022-11-13T05:09:18;27.75;;;15.65;;
33573;SDS011;20085;50.832;4.392;2022-11-13T05:11:43;23.13;;;14.55;;
33573;SDS011;20085;50.832;4.392;2022-11-13T05:14:13;23.25;;;14.93;;
33573;SDS011;20085;50.832;4.392;2022-11-13T05:16:38;27.65;;;14.93;;
33573;SDS011;20085;50.832;4.392;2022-11-13T05:19:04;23.75;;;13.70;;
33573;SDS011;20085;50.832;4.392;2022-11-13T05:21:31;20.92;;;13.95;;
33573;SDS011;20085;50.832;4.392;2022-11-13T05:24:01;23.85;;;13.70;;
33573;SDS011;20085;50.832;4.392;2022-11-13T05:26:27;22.23;;;14.02;;
33573;SDS011;20085;50.832;4.392;2022-11-13T05:28:55;22.20;;;13.50;;
33573;SDS011;20085;50.832;4.392;2022-11-13T05:31:24;19.92;;;12.85;;
33573;SDS011;20085;50.832;4.392;2022-11-13T05:33:51;22.85;;;13.43;;
33573;SDS011;20085;50.832;4.392;2022-11-13T05:36:17;22.38;;;12.68;;
33573;SDS011;20085;50.832;4.392;2022-11-13T05:38:44;18.48;;;11.70;;
33573;SDS011;20085;50.832;4.392;2022-11-13T05:41:11;18.00;;;11.65;;
33573;SDS011;20085;50.832;4.392;2022-11-13T05:43:39;18.70;;;10.40;;
33573;SDS011;20085;50.832;4.392;2022-11-13T05:46:10;21.77;;;11.25;;
33573;SDS011;20085;50.832;4.392;2022-11-13T05:48:39;16.63;;;10.25;;
33573;SDS011;20085;50.832;4.392;2022-11-13T05:51:16;18.55;;;10.95;;
33573;SDS011;20085;50.832;4.392;2022-11-13T05:53:44;19.40;;;10.32;;
33573;SDS011;20085;50.832;4.392;2022-11-13T05:56:18;17.02;;;9.98;;
33573;SDS011;20085;50.832;4.392;2022-11-13T05:58:45;14.93;;;9.43;;
33573;SDS011;20085;50.832;4.392;2022-11-13T06:01:13;14.27;;;8.98;;
33573;SDS011;20085;50.832;4.392;2022-11-13T06:03:40;14.35;;;9.02;;
33573;SDS011;20085;50.832;4.392;2022-11-13T06:06:07;16.77;;;9.35;;
33573;SDS011;20085;50.832;4.392;2022-11-13T06:08:35;16.15;;;9.82;;
33573;SDS011;20085;50.832;4.392;2022-11-13T06:11:02;16.77;;;9.35;;
33573;SDS011;20085;50.832;4.392;2022-11-13T06:13:32;14.02;;;9.15;;
33573;SDS011;20085;50.832;4.392;2022-11-13T06:16:02;16.48;;;9.00;;
33573;SDS011;20085;50.832;4.392;2022-11-13T06:18:31;13.93;;;8.90;;
33573;SDS011;20085;50.832;4.392;2022-11-13T06:21:01;14.35;;;9.45;;
33573;SDS011;20085;50.832;4.392;2022-11-13T06:23:34;15.27;;;9.52;;
33573;SDS011;20085;50.832;4.392;2022-11-13T06:26:02;12.90;;;9.20;;
33573;SDS011;20085;50.832;4.392;2022-11-13T06:28:31;18.35;;;8.85;;
33573;SDS011;20085;50.832;4.392;2022-11-13T06:31:01;14.00;;;8.90;;
33573;SDS011;20085;50.832;4.392;2022-11-13T06:33:37;15.02;;;9.02;;
33573;SDS011;20085;50.832;4.392;2022-11-13T06:36:04;12.07;;;8.45;;
33573;SDS011;20085;50.832;4.392;2022-11-13T06:38:35;16.40;;;8.63;;
33573;SDS011;20085;50.832;4.392;2022-11-13T06:41:03;15.55;;;9.35;;
33573;SDS011;20085;50.832;4.392;2022-11-13T06:43:30;14.77;;;8.50;;
33573;SDS011;20085;50.832;4.392;2022-11-13T06:45:56;13.30;;;8.88;;
33573;SDS011;20085;50.832;4.392;2022-11-13T06:48:22;15.65;;;8.25;;
33573;SDS011;20085;50.832;4.392;2022-11-13T06:50:48;14.52;;;8.85;;
33573;SDS011;20085;50.832;4.392;2022-11-13T06:53:13;13.82;;;8.43;;
33573;SDS011;20085;50.832;4.392;2022-11-13T06:55:47;13.00;;;9.02;;
33573;SDS011;20085;50.832;4.392;2022-11-13T06:58:14;17.08;;;8.00;;
33573;SDS011;20085;50.832;4.392;2022-11-13T07:00:40;13.80;;;8.48;;
33573;SDS011;20085;50.832;4.392;2022-11-13T07:03:28;13.80;;;8.95;;
33573;SDS011;20085;50.832;4.392;2022-11-13T07:05:52;13.43;;;8.20;;
33573;SDS011;20085;50.832;4.392;2022-11-13T07:08:18;16.40;;;8.68;;
33573;SDS011;20085;50.832;4.392;2022-11-13T07:10:51;14.63;;;8.70;;
33573;SDS011;20085;50.832;4.392;2022-11-13T07:13:18;15.27;;;8.90;;
33573;SDS011;20085;50.832;4.392;2022-11-13T07:15:44;14.93;;;9.05;;
33573;SDS011;20085;50.832;4.392;2022-11-13T07:18:09;13.68;;;8.77;;
33573;SDS011;20085;50.832;4.392;2022-11-13T07:20:35;18.52;;;8.82;;
33573;SDS011;20085;50.832;4.392;2022-11-13T07:23:01;14.52;;;8.68;;
33573;SDS011;20085;50.832;4.392;2022-11-13T07:25:28;13.75;;;8.90;;
33573;SDS011;20085;50.832;4.392;2022-11-13T07:27:54;13.93;;;8.75;;
33573;SDS011;20085;50.832;4.392;2022-11-13T07:30:20;15.68;;;8.77;;
33573;SDS011;20085;50.832;4.392;2022-11-13T07:32:46;14.50;;;8.75;;
33573;SDS011;20085;50.832;4.392;2022-11-13T07:35:12;13.95;;;8.75;;
33573;SDS011;20085;50.832;4.392;2022-11-13T07:37:38;16.58;;;10.80;;
33573;SDS011;20085;50.832;4.392;2022-11-13T07:40:04;23.17;;;14.43;;
33573;SDS011;20085;50.832;4.392;2022-11-13T07:42:30;24.73;;;17.50;;
33573;SDS011;20085;50.832;4.392;2022-11-13T07:44:56;24.38;;;14.40;;
33573;SDS011;20085;50.832;4.392;2022-11-13T07:47:22;24.73;;;17.02;;
33573;SDS011;20085;50.832;4.392;2022-11-13T07:49:48;16.52;;;11.02;;
33573;SDS011;20085;50.832;4.392;2022-11-13T07:52:13;19.98;;;10.55;;
33573;SDS011;20085;50.832;4.392;2022-11-13T07:54:39;22.67;;;13.40;;
33573;SDS011;20085;50.832;4.392;2022-11-13T07:57:05;22.77;;;14.73;;
33573;SDS011;20085;50.832;4.392;2022-11-13T07:59:30;18.67;;;12.27;;
33573;SDS011;20085;50.832;4.392;2022-11-13T08:01:56;17.77;;;11.13;;
33573;SDS011;20085;50.832;4.392;2022-11-13T08:04:22;15.68;;;10.82;;
33573;SDS011;20085;50.832;4.392;2022-11-13T08:06:47;15.88;;;9.98;;
33573;SDS011;20085;50.832;4.392;2022-11-13T08:09:13;20.40;;;10.32;;
33573;SDS011;20085;50.832;4.392;2022-11-13T08:11:39;16.40;;;10.07;;
33573;SDS011;20085;50.832;4.392;2022-11-13T08:14:04;17.85;;;10.82;;
33573;SDS011;20085;50.832;4.392;2022-11-13T08:16:30;22.45;;;10.77;;
33573;SDS011;20085;50.832;4.392;2022-11-13T08:18:56;14.32;;;9.88;;
33573;SDS011;20085;50.832;4.392;2022-11-13T08:21:21;16.77;;;11.60;;
33573;SDS011;20085;50.832;4.392;2022-11-13T08:23:47;19.90;;;12.00;;
33573;SDS011;20085;50.832;4.392;2022-11-13T08:26:14;23.88;;;15.20;;
33573;SDS011;20085;50.832;4.392;2022-11-13T08:28:41;23.08;;;12.93;;
33573;SDS011;20085;50.832;4.392;2022-11-13T08:31:11;21.20;;;14.13;;
33573;SDS011;20085;50.832;4.392;2022-11-13T08:33:38;16.92;;;11.23;;
33573;SDS011;20085;50.832;4.392;2022-11-13T08:36:06;19.90;;;10.80;;
33573;SDS011;20085;50.832;4.392;2022-11-13T08:38:32;15.30;;;10.45;;
33573;SDS011;20085;50.832;4.392;2022-11-13T08:40:58;16.95;;;10.73;;
33573;SDS011;20085;50.832;4.392;2022-11-13T08:43:25;16.48;;;11.25;;
33573;SDS011;20085;50.832;4.392;2022-11-13T08:45:51;15.43;;;10.65;;
33573;SDS011;20085;50.832;4.392;2022-11-13T08:48:17;17.73;;;11.32;;
33573;SDS011;20085;50.832;4.392;2022-11-13T08:50:43;23.80;;;11.45;;
33573;SDS011;20085;50.832;4.392;2022-11-13T08:53:09;18.20;;;11.77;;
33573;SDS011;20085;50.832;4.392;2022-11-13T08:55:34;17.80;;;11.13;;
33573;SDS011;20085;50.832;4.392;2022-11-13T08:58:00;17.67;;;12.00;;
33573;SDS011;20085;50.832;4.392;2022-11-13T09:00:27;16.85;;;11.07;;
33573;SDS011;20085;50.832;4.392;2022-11-13T09:02:55;17.15;;;10.82;;
33573;SDS011;20085;50.832;4.392;2022-11-13T09:05:21;17.42;;;11.50;;
33573;SDS011;20085;50.832;4.392;2022-11-13T09:07:48;19.20;;;11.70;;
33573;SDS011;20085;50.832;4.392;2022-11-13T09:10:14;19.60;;;11.52;;
33573;SDS011;20085;50.832;4.392;2022-11-13T09:12:45;17.23;;;11.68;;
33573;SDS011;20085;50.832;4.392;2022-11-13T09:15:10;17.10;;;11.10;;
33573;SDS011;20085;50.832;4.392;2022-11-13T09:17:36;16.15;;;10.30;;
33573;SDS011;20085;50.832;4.392;2022-11-13T09:20:02;17.25;;;11.18;;
33573;SDS011;20085;50.832;4.392;2022-11-13T09:22:31;16.45;;;10.50;;
33573;SDS011;20085;50.832;4.392;2022-11-13T09:24:57;16.63;;;10.52;;
33573;SDS011;20085;50.832;4.392;2022-11-13T09:27:23;17.17;;;10.55;;
33573;SDS011;20085;50.832;4.392;2022-11-13T09:29:48;17.55;;;11.20;;
33573;SDS011;20085;50.832;4.392;2022-11-13T09:32:14;16.50;;;10.32;;
33573;SDS011;20085;50.832;4.392;2022-11-13T09:34:40;19.58;;;9.82;;
33573;SDS011;20085;50.832;4.392;2022-11-13T09:37:06;14.32;;;9.77;;
33573;SDS011;20085;50.832;4.392;2022-11-13T09:39:31;16.08;;;10.73;;
33573;SDS011;20085;50.832;4.392;2022-11-13T09:41:59;16.60;;;10.23;;
33573;SDS011;20085;50.832;4.392;2022-11-13T09:44:37;16.45;;;10.50;;
33573;SDS011;20085;50.832;4.392;2022-11-13T09:49:38;15.68;;;9.65;;
33573;SDS011;20085;50.832;4.392;2022-11-13T09:52:30;16.20;;;9.98;;
33573;SDS011;20085;50.832;4.392;2022-11-13T09:55:00;16.17;;;10.50;;
33573;SDS011;20085;50.832;4.392;2022-11-13T10:00:20;15.10;;;8.95;;
33573;SDS011;20085;50.832;4.392;2022-11-13T10:05:30;13.63;;;8.48;;
33573;SDS011;20085;50.832;4.392;2022-11-13T10:10:51;13.07;;;8.38;;
33573;SDS011;20085;50.832;4.392;2022-11-13T10:13:24;14.75;;;7.95;;
33573;SDS011;20085;50.832;4.392;2022-11-13T10:16:13;12.55;;;8.35;;
33573;SDS011;20085;50.832;4.392;2022-11-13T10:18:40;14.15;;;9.32;;
33573;SDS011;20085;50.832;4.392;2022-11-13T10:21:11;14.02;;;8.88;;
33573;SDS011;20085;50.832;4.392;2022-11-13T10:23:55;13.57;;;8.73;;
33573;SDS011;20085;50.832;4.392;2022-11-13T10:26:21;14.43;;;8.65;;
33573;SDS011;20085;50.832;4.392;2022-11-13T10:28:55;12.82;;;8.70;;
33573;SDS011;20085;50.832;4.392;2022-11-13T10:31:47;17.33;;;9.30;;
33573;SDS011;20085;50.832;4.392;2022-11-13T10:34:15;13.88;;;9.48;;
33573;SDS011;20085;50.832;4.392;2022-11-13T10:39:13;15.13;;;8.75;;
33573;SDS011;20085;50.832;4.392;2022-11-13T10:41:49;12.73;;;8.70;;
33573;SDS011;20085;50.832;4.392;2022-11-13T10:47:14;12.45;;;8.25;;
33573;SDS011;20085;50.832;4.392;2022-11-13T10:49:41;11.57;;;7.70;;
33573;SDS011;20085;50.832;4.392;2022-11-13T10:52:17;12.45;;;7.88;;
33573;SDS011;20085;50.832;4.392;2022-11-13T10:54:49;10.85;;;7.43;;
33573;SDS011;20085;50.832;4.392;2022-11-13T10:57:22;11.73;;;7.18;;
33573;SDS011;20085;50.832;4.392;2022-11-13T10:59:49;11.43;;;7.03;;
33573;SDS011;20085;50.832;4.392;2022-11-13T11:02:18;11.43;;;7.45;;
33573;SDS011;20085;50.832;4.392;2022-11-13T11:04:46;10.35;;;7.03;;
33573;SDS011;20085;50.832;4.392;2022-11-13T11:09:45;13.27;;;7.47;;
33573;SDS011;20085;50.832;4.392;2022-11-13T11:12:22;10.23;;;7.30;;
33573;SDS011;20085;50.832;4.392;2022-11-13T11:17:25;12.02;;;7.35;;
33573;SDS011;20085;50.832;4.392;2022-11-13T11:20:08;10.63;;;6.75;;
33573;SDS011;20085;50.832;4.392;2022-11-13T11:22:44;12.10;;;7.47;;
33573;SDS011;20085;50.832;4.392;2022-11-13T11:25:13;10.90;;;6.70;;
33573;SDS011;20085;50.832;4.392;2022-11-13T11:30:50;12.20;;;6.53;;
33573;SDS011;20085;50.832;4.392;2022-11-13T11:33:34;11.38;;;6.93;;
33573;SDS011;20085;50.832;4.392;2022-11-13T11:36:11;9.73;;;5.82;;
33573;SDS011;20085;50.832;4.392;2022-11-13T11:41:11;13.57;;;6.97;;
33573;SDS011;20085;50.832;4.392;2022-11-13T11:46:13;9.90;;;5.90;;
33573;SDS011;20085;50.832;4.392;2022-11-13T11:48:41;10.15;;;5.82;;
33573;SDS011;20085;50.832;4.392;2022-11-13T11:51:28;10.20;;;6.20;;
33573;SDS011;20085;50.832;4.392;2022-11-13T11:56:35;8.77;;;4.90;;
33573;SDS011;20085;50.832;4.392;2022-11-13T12:05:00;8.80;;;4.80;;
33573;SDS011;20085;50.832;4.392;2022-11-13T12:07:31;7.50;;;4.90;;
33573;SDS011;20085;50.832;4.392;2022-11-13T12:15:41;11.00;;;5.20;;
33573;SDS011;20085;50.832;4.392;2022-11-13T12:24:00;12.85;;;6.93;;
33573;SDS011;20085;50.832;4.392;2022-11-13T12:27:05;7.85;;;4.78;;
33573;SDS011;20085;50.832;4.392;2022-11-13T12:29:39;9.43;;;4.10;;
33573;SDS011;20085;50.832;4.392;2022-11-13T12:35:02;8.43;;;4.32;;
33573;SDS011;20085;50.832;4.392;2022-11-13T12:37:39;6.55;;;3.75;;
33573;SDS011;20085;50.832;4.392;2022-11-13T12:40:41;6.82;;;3.75;;
33573;SDS011;20085;50.832;4.392;2022-11-13T12:43:05;6.60;;;3.60;;
33573;SDS011;20085;50.832;4.392;2022-11-13T12:45:45;6.88;;;3.70;;
33573;SDS011;20085;50.832;4.392;2022-11-13T12:50:55;7.35;;;3.58;;
33573;SDS011;20085;50.832;4.392;2022-11-13T12:53:27;7.70;;;3.35;;
33573;SDS011;20085;50.832;4.392;2022-11-13T12:56:01;5.82;;;3.08;;
33573;SDS011;20085;50.832;4.392;2022-11-13T12:58:28;5.70;;;3.30;;
33573;SDS011;20085;50.832;4.392;2022-11-13T13:01:01;5.93;;;3.10;;
33573;SDS011;20085;50.832;4.392;2022-11-13T13:15:10;6.20;;;3.40;;
33573;SDS011;20085;50.832;4.392;2022-11-13T13:17:48;7.28;;;3.80;;
33573;SDS011;20085;50.832;4.392;2022-11-13T13:20:29;6.63;;;3.53;;
33573;SDS011;20085;50.832;4.392;2022-11-13T13:22:58;7.35;;;3.75;;
33573;SDS011;20085;50.832;4.392;2022-11-13T13:25:29;7.00;;;3.33;;
33573;SDS011;20085;50.832;4.392;2022-11-13T13:28:15;7.82;;;3.60;;
33573;SDS011;20085;50.832;4.392;2022-11-13T13:36:23;7.60;;;3.50;;
33573;SDS011;20085;50.832;4.392;2022-11-13T13:39:28;7.47;;;3.78;;
33573;SDS011;20085;50.832;4.392;2022-11-13T13:42:33;7.15;;;3.92;;
33573;SDS011;20085;50.832;4.392;2022-11-13T13:47:48;6.45;;;3.65;;
33573;SDS011;20085;50.832;4.392;2022-11-13T13:50:18;7.00;;;3.75;;
33573;SDS011;20085;50.832;4.392;2022-11-13T13:52:49;6.88;;;3.80;;
33573;SDS011;20085;50.832;4.392;2022-11-13T13:55:37;9.13;;;4.15;;
33573;SDS011;20085;50.832;4.392;2022-11-13T13:58:05;6.75;;;3.75;;
33573;SDS011;20085;50.832;4.392;2022-11-13T14:00:36;7.40;;;3.60;;
33573;SDS011;20085;50.832;4.392;2022-11-13T14:03:02;7.50;;;3.75;;
33573;SDS011;20085;50.832;4.392;2022-11-13T14:05:29;10.27;;;3.65;;
33573;SDS011;20085;50.832;4.392;2022-11-13T14:07:57;7.07;;;3.85;;
33573;SDS011;20085;50.832;4.392;2022-11-13T14:10:25;12.77;;;5.55;;
33573;SDS011;20085;50.832;4.392;2022-11-13T14:12:52;7.43;;;3.67;;
33573;SDS011;20085;50.832;4.392;2022-11-13T14:18:11;9.38;;;3.53;;
33573;SDS011;20085;50.832;4.392;2022-11-13T14:20:39;7.43;;;3.55;;
33573;SDS011;20085;50.832;4.392;2022-11-13T14:23:16;8.13;;;3.35;;
33573;SDS011;20085;50.832;4.392;2022-11-13T14:25:52;6.13;;;3.17;;
33573;SDS011;20085;50.832;4.392;2022-11-13T14:28:18;7.40;;;3.38;;
33573;SDS011;20085;50.832;4.392;2022-11-13T14:33:48;6.72;;;3.70;;
33573;SDS011;20085;50.832;4.392;2022-11-13T14:36:15;9.32;;;3.33;;
33573;SDS011;20085;50.832;4.392;2022-11-13T14:38:50;6.63;;;3.30;;
33573;SDS011;20085;50.832;4.392;2022-11-13T14:43:48;7.70;;;3.40;;
33573;SDS011;20085;50.832;4.392;2022-11-13T14:48:54;7.72;;;3.45;;
33573;SDS011;20085;50.832;4.392;2022-11-13T14:51:21;6.07;;;3.13;;
33573;SDS011;20085;50.832;4.392;2022-11-13T14:53:59;7.38;;;3.40;;
33573;SDS011;20085;50.832;4.392;2022-11-13T14:56:36;6.50;;;3.47;;
33573;SDS011;20085;50.832;4.392;2022-11-13T14:59:13;6.30;;;3.28;;
33573;SDS011;20085;50.832;4.392;2022-11-13T15:01:40;7.78;;;3.30;;
33573;SDS011;20085;50.832;4.392;2022-11-13T15:04:18;7.55;;;3.53;;
33573;SDS011;20085;50.832;4.392;2022-11-13T15:06:46;7.43;;;3.70;;
33573;SDS011;20085;50.832;4.392;2022-11-13T15:09:19;8.02;;;3.50;;
33573;SDS011;20085;50.832;4.392;2022-11-13T15:11:46;10.45;;;3.92;;
33573;SDS011;20085;50.832;4.392;2022-11-13T15:14:13;10.07;;;4.93;;
33573;SDS011;20085;50.832;4.392;2022-11-13T15:16:44;12.23;;;6.10;;
33573;SDS011;20085;50.832;4.392;2022-11-13T15:19:26;11.85;;;5.47;;
33573;SDS011;20085;50.832;4.392;2022-11-13T15:21:57;8.60;;;4.93;;
33573;SDS011;20085;50.832;4.392;2022-11-13T15:24:23;11.85;;;5.53;;
33573;SDS011;20085;50.832;4.392;2022-11-13T15:26:48;12.70;;;6.15;;
33573;SDS011;20085;50.832;4.392;2022-11-13T15:29:14;11.63;;;5.78;;
33573;SDS011;20085;50.832;4.392;2022-11-13T15:31:40;11.05;;;5.68;;
33573;SDS011;20085;50.832;4.392;2022-11-13T15:34:09;13.25;;;6.38;;
33573;SDS011;20085;50.832;4.392;2022-11-13T15:36:35;12.27;;;6.25;;
33573;SDS011;20085;50.832;4.392;2022-11-13T15:39:01;12.38;;;6.22;;
33573;SDS011;20085;50.832;4.392;2022-11-13T15:41:27;10.55;;;5.82;;
33573;SDS011;20085;50.832;4.392;2022-11-13T15:43:54;11.40;;;6.55;;
33573;SDS011;20085;50.832;4.392;2022-11-13T15:46:21;11.68;;;5.97;;
33573;SDS011;20085;50.832;4.392;2022-11-13T15:48:48;9.57;;;5.88;;
33573;SDS011;20085;50.832;4.392;2022-11-13T15:51:26;13.70;;;6.70;;
33573;SDS011;20085;50.832;4.392;2022-11-13T15:54:16;16.65;;;7.03;;
33573;SDS011;20085;50.832;4.392;2022-11-13T15:56:52;15.40;;;6.82;;
33573;SDS011;20085;50.832;4.392;2022-11-13T15:59:17;11.98;;;7.18;;
33573;SDS011;20085;50.832;4.392;2022-11-13T16:01:43;14.25;;;7.40;;
33573;SDS011;20085;50.832;4.392;2022-11-13T16:04:09;13.73;;;7.75;;
33573;SDS011;20085;50.832;4.392;2022-11-13T16:06:37;14.93;;;7.97;;
33573;SDS011;20085;50.832;4.392;2022-11-13T16:09:04;16.60;;;9.77;;
33573;SDS011;20085;50.832;4.392;2022-11-13T16:11:30;15.80;;;8.57;;
33573;SDS011;20085;50.832;4.392;2022-11-13T16:13:57;15.27;;;8.07;;
33573;SDS011;20085;50.832;4.392;2022-11-13T16:16:29;13.60;;;7.93;;